Time;durP1;ratioP1;P1;durP2;ratioP2;P2;SDS_P1;SDS_P2;PMS_P1;PMS_P2;Temp;Humidity;BMP_temperature;BMP_pressure;BME280_temperature;BME280_humidity;BME280_pressure;Samples;Min_cycle;Max_cycle;Signal;HPM_P1;HPM_P2
2023/08/27 00:01:53;;;;;;;;;;;;;;;29.15;49.57;101104.50;5053086;28;20412;-90
2023/08/27 00:04:24;;;;;;;;;;;;;;;29.15;49.35;101099.13;5040131;28;19913;-90
2023/08/27 00:06:51;;;;;;;;;;;;;;;29.13;49.70;101100.97;5045738;28;20020;-90
2023/08/27 00:09:16;;;;;;;;;;;;;;;29.13;49.45;101089.31;5036030;28;19917;-88
2023/08/27 00:11:43;;;;;;;;;;;;;;;29.13;49.50;101081.25;5050457;28;20310;-90
2023/08/27 00:14:09;;;;;;;;;;;;;;;29.13;49.66;101078.56;5033772;28;19913;-91
2023/08/27 00:16:35;;;;;;;;;;;;;;;29.11;49.54;101075.00;5046781;28;19921;-91
2023/08/27 00:19:01;;;;;;;;;;;;;;;29.11;49.63;101078.59;5040391;28;19974;-91
2023/08/27 00:21:29;;;;;;;;;;;;;;;29.08;49.69;101070.50;5052959;28;19921;-90
2023/08/27 00:23:55;;;;;;;;;;;;;;;29.09;49.73;101068.75;5036299;28;19952;-90
2023/08/27 00:26:21;;;;;;;;;;;;;;;29.10;49.46;101071.41;5058843;28;20374;-91
2023/08/27 00:28:46;;;;;;;;;;;;;;;29.09;49.62;101069.63;5036426;28;20397;-92
2023/08/27 00:31:12;;;;;;;;;;;;;;;29.07;49.77;101065.19;5040782;28;20314;-90
2023/08/27 00:33:38;;;;;;;;;;;;;;;29.06;49.78;101066.09;5050843;28;20015;-91
2023/08/27 00:36:05;;;;;;;;;;;;;;;29.08;49.79;101069.63;5059017;28;20007;-91
2023/08/27 00:38:31;;;;;;;;;;;;;;;29.07;49.60;101068.75;5047149;28;19927;-90
2023/08/27 00:40:58;;;;;;;;;;;;;;;29.09;49.74;101061.56;5025846;28;19917;-90
2023/08/27 00:43:24;;;;;;;;;;;;;;;29.07;49.83;101073.25;5062703;28;19947;-91
2023/08/27 00:45:51;;;;;;;;;;;;;;;29.05;49.81;101067.00;5038571;28;20336;-90
2023/08/27 00:48:17;;;;;;;;;;;;;;;29.03;49.60;101073.28;5035552;28;20059;-90
2023/08/27 00:50:43;;;;;;;;;;;;;;;29.05;49.69;101070.59;5032951;28;20454;-89
2023/08/27 00:53:09;;;;;;;;;;;;;;;29.05;49.68;101073.28;5032904;28;19917;-90
2023/08/27 00:55:35;;;;;;;;;;;;;;;29.04;50.06;101079.56;5043288;28;20401;-90
2023/08/27 00:58:00;;;;;;;;;;;;;;;29.03;50.08;101080.47;5041005;28;19952;-90
2023/08/27 01:00:26;;;;;;;;;;;;;;;29.03;50.01;101085.84;5024327;28;19979;-90
2023/08/27 01:02:51;;;;;;;;;;;;;;;29.01;49.74;101083.19;5049452;28;20417;-90
2023/08/27 01:05:20;;;;;;;;;;;;;;;28.98;49.78;101088.63;5037144;28;19921;-90
2023/08/27 01:07:48;;;;;;;;;;;;;;;28.95;49.89;101090.47;5037074;28;19921;-91
2023/08/27 01:10:32;;;;;;;;;;;;;;;28.95;49.94;101083.28;5049556;28;20291;-91
2023/08/27 01:13:02;;;;;;;;;;;;;;;28.96;49.98;101076.13;5033887;28;20425;-90
2023/08/27 01:15:27;;;;;;;;;;;;;;;28.98;49.63;101077.88;5036458;28;19918;-90
2023/08/27 01:17:53;;;;;;;;;;;;;;;28.96;49.84;101054.63;5029565;28;20002;-90
2023/08/27 01:20:19;;;;;;;;;;;;;;;28.96;49.55;101057.31;5031893;28;20239;-91
2023/08/27 01:22:45;;;;;;;;;;;;;;;28.95;49.66;101068.97;5049650;28;19961;-91
2023/08/27 01:25:11;;;;;;;;;;;;;;;28.90;50.00;101060.09;5022910;28;19917;-89
2023/08/27 01:28:04;;;;;;;;;;;;;;;28.89;49.58;101064.56;5043600;28;19944;-89
2023/08/27 01:30:32;;;;;;;;;;;;;;;28.88;49.71;101057.44;5030720;28;19924;-89
2023/08/27 01:33:03;;;;;;;;;;;;;;;28.90;49.61;101058.31;5040521;28;19917;-88
2023/08/27 01:35:34;;;;;;;;;;;;;;;28.90;49.68;101058.31;5057594;28;19921;-91
2023/08/27 01:38:00;;;;;;;;;;;;;;;28.91;49.96;101054.69;5035691;28;19921;-89
2023/08/27 01:40:29;;;;;;;;;;;;;;;28.89;49.88;101051.13;5048747;28;19936;-89
2023/08/27 01:42:54;;;;;;;;;;;;;;;28.84;49.93;101058.41;5031930;28;19921;-90
2023/08/27 01:45:20;;;;;;;;;;;;;;;28.86;49.82;101061.94;5041671;28;20317;-91
2023/08/27 01:47:46;;;;;;;;;;;;;;;28.85;49.48;101054.81;5044879;28;19913;-91
2023/08/27 01:50:17;;;;;;;;;;;;;;;28.86;49.31;101053.88;5049109;28;19917;-91
2023/08/27 01:52:46;;;;;;;;;;;;;;;28.87;49.37;101054.75;5026205;28;19921;-90
2023/08/27 01:55:12;;;;;;;;;;;;;;;28.90;49.84;101057.41;5041321;28;19921;-90
2023/08/27 01:57:37;;;;;;;;;;;;;;;28.89;49.98;101056.50;5041853;28;20448;-90
2023/08/27 02:00:08;;;;;;;;;;;;;;;28.79;49.88;101042.34;5048636;28;19947;-89
2023/08/27 02:02:36;;;;;;;;;;;;;;;28.86;50.04;101059.25;5045847;28;19929;-89
2023/08/27 02:05:03;;;;;;;;;;;;;;;28.81;50.14;101058.47;5019901;28;19990;-89
2023/08/27 02:07:28;;;;;;;;;;;;;;;28.82;50.10;101058.41;5047089;28;19921;-89
2023/08/27 02:09:54;;;;;;;;;;;;;;;28.83;50.02;101059.34;5031382;28;19978;-89
2023/08/27 02:12:20;;;;;;;;;;;;;;;28.79;50.37;101052.22;5033337;28;20409;-91
2023/08/27 02:14:45;;;;;;;;;;;;;;;28.78;50.19;101056.69;5034904;28;19927;-88
2023/08/27 02:17:14;;;;;;;;;;;;;;;28.72;49.96;101037.97;5043253;28;20416;-91
2023/08/27 02:19:40;;;;;;;;;;;;;;;28.74;49.81;101046.91;5032724;28;19917;-88
2023/08/27 02:22:07;;;;;;;;;;;;;;;28.76;49.38;101039.69;5059267;28;19917;-91
2023/08/27 02:24:32;;;;;;;;;;;;;;;28.75;49.54;101043.31;5034453;28;19917;-91
2023/08/27 02:27:02;;;;;;;;;;;;;;;28.80;49.97;101040.56;5025533;28;20317;-90
2023/08/27 02:29:27;;;;;;;;;;;;;;;28.76;50.07;101037.00;5051527;28;20038;-91
2023/08/27 02:31:53;;;;;;;;;;;;;;;28.74;50.01;101038.84;5057489;28;20085;-91
2023/08/27 02:34:19;;;;;;;;;;;;;;;28.71;49.76;101033.53;5031249;28;19933;-91
2023/08/27 02:36:45;;;;;;;;;;;;;;;28.76;50.07;101031.63;5030107;28;20003;-90
2023/08/27 02:39:11;;;;;;;;;;;;;;;28.76;49.81;101028.06;5057394;28;19928;-91
2023/08/27 02:41:37;;;;;;;;;;;;;;;28.76;50.23;101033.44;5031492;28;20389;-91
2023/08/27 02:44:05;;;;;;;;;;;;;;;28.75;50.03;101034.38;5035985;28;19921;-91
2023/08/27 02:46:30;;;;;;;;;;;;;;;28.74;50.11;101038.84;5053337;28;19921;-91
2023/08/27 02:48:56;;;;;;;;;;;;;;;28.73;50.06;101031.72;5048024;28;19935;-91
2023/08/27 02:51:23;;;;;;;;;;;;;;;28.68;50.12;101038.97;5036011;28;19921;-91
2023/08/27 02:53:51;;;;;;;;;;;;;;;28.70;49.90;101049.69;5066694;28;19921;-91
2023/08/27 02:56:17;;;;;;;;;;;;;;;28.70;50.15;101049.69;5034208;28;19925;-91
2023/08/27 02:58:42;;;;;;;;;;;;;;;28.70;50.09;101050.59;5031487;28;19917;-92
2023/08/27 03:01:12;;;;;;;;;;;;;;;28.69;50.13;101046.09;5047908;28;19983;-92
2023/08/27 03:03:37;;;;;;;;;;;;;;;28.68;50.01;101055.09;5048563;28;19921;-91
2023/08/27 03:06:03;;;;;;;;;;;;;;;28.63;49.91;101044.41;5032243;28;20633;-91
2023/08/27 03:08:29;;;;;;;;;;;;;;;28.61;49.76;101054.28;5038967;28;19925;-91
2023/08/27 03:10:56;;;;;;;;;;;;;;;28.62;49.89;101049.81;5032396;28;20015;-91
2023/08/27 03:13:22;;;;;;;;;;;;;;;28.62;49.95;101047.13;5048055;28;19971;-91
2023/08/27 03:15:49;;;;;;;;;;;;;;;28.62;49.98;101050.69;5044125;28;19917;-91
2023/08/27 03:18:16;;;;;;;;;;;;;;;28.59;49.76;101036.41;5047558;28;19917;-89
2023/08/27 03:20:41;;;;;;;;;;;;;;;28.60;50.11;101047.16;5027986;28;19928;-90
2023/08/27 03:23:07;;;;;;;;;;;;;;;28.61;50.01;101046.22;5040818;28;20309;-89
2023/08/27 03:25:32;;;;;;;;;;;;;;;28.61;49.95;101056.09;5027224;28;20409;-90
2023/08/27 03:27:58;;;;;;;;;;;;;;;28.63;49.76;101051.59;5030978;28;19913;-90
2023/08/27 03:30:24;;;;;;;;;;;;;;;28.60;50.14;101055.22;5065628;28;19917;-89
2023/08/27 03:32:50;;;;;;;;;;;;;;;28.63;49.84;101047.09;5036917;28;19940;-88
2023/08/27 03:35:17;;;;;;;;;;;;;;;28.61;49.83;101046.22;5037529;28;20397;-90
2023/08/27 03:37:43;;;;;;;;;;;;;;;28.60;49.97;101049.84;5052917;28;19928;-90
2023/08/27 03:40:18;;;;;;;;;;;;;;;28.58;49.87;101040.91;5038029;28;19920;-91
2023/08/27 03:42:43;;;;;;;;;;;;;;;28.54;49.86;101039.19;5041908;28;19920;-91
2023/08/27 03:45:10;;;;;;;;;;;;;;;28.50;49.41;101041.94;5054929;28;19975;-90
2023/08/27 03:47:35;;;;;;;;;;;;;;;28.49;49.23;101043.75;5066870;28;20301;-90
2023/08/27 03:50:01;;;;;;;;;;;;;;;28.48;49.99;101050.00;5054609;28;19917;-90
2023/08/27 03:52:27;;;;;;;;;;;;;;;28.49;49.34;101048.22;5049081;28;20058;-90
2023/08/27 03:54:54;;;;;;;;;;;;;;;28.49;49.66;101049.13;5053540;28;19921;-90
2023/08/27 03:57:21;;;;;;;;;;;;;;;28.48;49.56;101052.69;5066685;28;19916;-89
2023/08/27 03:59:47;;;;;;;;;;;;;;;28.50;49.38;101050.88;5044610;28;20771;-90
2023/08/27 04:02:14;;;;;;;;;;;;;;;28.48;49.43;101052.69;5043915;28;19925;-91
2023/08/27 04:04:40;;;;;;;;;;;;;;;28.47;49.45;101044.63;5067753;28;19917;-90
2023/08/27 04:07:08;;;;;;;;;;;;;;;28.45;49.47;101050.06;5060808;28;19921;-89
2023/08/27 04:09:34;;;;;;;;;;;;;;;28.43;49.71;101044.69;5035281;28;20657;-89
2023/08/27 04:11:59;;;;;;;;;;;;;;;28.46;49.77;101056.31;5059251;28;19927;-91
2023/08/27 04:14:25;;;;;;;;;;;;;;;28.43;49.54;101039.31;5053661;28;19916;-90
2023/08/27 04:16:50;;;;;;;;;;;;;;;28.39;50.08;101051.03;5045868;28;19940;-91
2023/08/27 04:19:25;;;;;;;;;;;;;;;28.41;50.39;101049.22;5053571;28;20397;-90
2023/08/27 04:21:50;;;;;;;;;;;;;;;28.38;50.70;101049.22;5074719;28;20282;-90
2023/08/27 04:24:17;;;;;;;;;;;;;;;28.38;50.29;101045.66;5071383;28;19928;-90
2023/08/27 04:26:42;;;;;;;;;;;;;;;28.40;50.66;101051.91;5073398;28;19924;-89
2023/08/27 04:29:08;;;;;;;;;;;;;;;28.41;50.73;101059.06;5056752;28;19999;-90
2023/08/27 04:31:35;;;;;;;;;;;;;;;28.40;50.76;101062.66;5057667;28;20015;-90
2023/08/27 04:34:16;;;;;;;;;;;;;;;28.42;51.01;101050.09;5072721;28;19920;-92
2023/08/27 04:36:42;;;;;;;;;;;;;;;28.40;50.75;101060.84;5042654;28;20016;-92
2023/08/27 04:39:13;;;;;;;;;;;;;;;28.37;50.41;101055.53;5052174;28;19998;-92
2023/08/27 04:41:39;;;;;;;;;;;;;;;28.41;50.48;101054.59;5030046;28;19959;-90
2023/08/27 04:44:05;;;;;;;;;;;;;;;28.40;50.72;101051.91;5058282;28;19956;-86
2023/08/27 04:46:31;;;;;;;;;;;;;;;28.35;51.04;101057.34;5045887;28;19946;-86
2023/08/27 04:48:56;;;;;;;;;;;;;;;28.40;50.43;101054.59;5051692;28;19951;-86
2023/08/27 04:51:21;;;;;;;;;;;;;;;28.37;50.37;101050.16;5068780;28;19927;-86
2023/08/27 04:53:47;;;;;;;;;;;;;;;28.38;50.36;101051.91;5070618;28;20037;-85
2023/08/27 04:56:12;;;;;;;;;;;;;;;28.40;50.33;101049.22;5057462;28;20593;-87
2023/08/27 04:58:38;;;;;;;;;;;;;;;28.40;50.59;101051.91;5079588;28;20521;-85
2023/08/27 05:01:03;;;;;;;;;;;;;;;28.38;50.70;101048.34;5065746;28;19925;-85
2023/08/27 05:03:29;;;;;;;;;;;;;;;28.38;50.11;101051.03;5076177;28;20286;-87
2023/08/27 05:05:54;;;;;;;;;;;;;;;28.38;50.43;101045.66;5063688;28;19932;-87
2023/08/27 05:08:20;;;;;;;;;;;;;;;28.38;50.71;101045.66;5060552;28;20366;-87
2023/08/27 05:10:45;;;;;;;;;;;;;;;28.37;50.71;101049.28;5067163;28;19920;-85
2023/08/27 05:13:11;;;;;;;;;;;;;;;28.19;50.34;101004.78;5068973;28;19924;-87
2023/08/27 05:15:36;;;;;;;;;;;;;;;28.34;50.65;101039.47;5035601;28;19991;-86
2023/08/27 05:18:02;;;;;;;;;;;;;;;28.34;50.63;101042.16;5076648;28;19921;-87
2023/08/27 05:20:28;;;;;;;;;;;;;;;28.34;50.76;101038.56;5051745;28;19920;-87
2023/08/27 05:22:54;;;;;;;;;;;;;;;28.33;50.70;101047.56;5045022;28;19925;-87
2023/08/27 05:25:19;;;;;;;;;;;;;;;28.33;51.04;101044.88;5069732;28;20011;-88
2023/08/27 05:27:45;;;;;;;;;;;;;;;28.30;51.21;101043.13;5062910;28;19928;-86
2023/08/27 05:30:14;;;;;;;;;;;;;;;28.33;51.19;101040.38;5066264;28;20308;-87
2023/08/27 05:32:40;;;;;;;;;;;;;;;28.18;52.53;101036.13;5049806;28;19920;-86
2023/08/27 05:35:06;;;;;;;;;;;;;;;28.26;53.17;101041.38;5070530;28;19916;-86
2023/08/27 05:37:31;;;;;;;;;;;;;;;28.29;52.64;101038.66;5065174;28;19921;-86
2023/08/27 05:39:56;;;;;;;;;;;;;;;28.29;52.25;101044.00;5042313;28;20285;-86
2023/08/27 05:42:22;;;;;;;;;;;;;;;28.29;52.30;101046.69;5063690;28;19920;-87
2023/08/27 05:44:49;;;;;;;;;;;;;;;28.24;52.41;101053.94;5068301;28;20308;-87
2023/08/27 05:47:17;;;;;;;;;;;;;;;28.26;52.43;101051.22;5045373;28;19920;-88
2023/08/27 05:49:45;;;;;;;;;;;;;;;28.28;52.41;101047.63;5067611;28;19929;-87
2023/08/27 05:52:10;;;;;;;;;;;;;;;28.27;52.44;101059.25;5066078;28;20379;-86
2023/08/27 05:54:36;;;;;;;;;;;;;;;28.27;52.52;101056.56;5073013;28;19986;-86
2023/08/27 05:57:01;;;;;;;;;;;;;;;28.24;52.10;101062.00;5086577;28;20411;-85
2023/08/27 05:59:27;;;;;;;;;;;;;;;28.24;52.99;101059.31;5067908;28;19921;-85
2023/08/27 06:01:52;;;;;;;;;;;;;;;28.25;52.74;101068.25;5082445;28;19920;-86
2023/08/27 06:04:17;;;;;;;;;;;;;;;28.26;52.57;101064.66;5069683;28;20412;-86
2023/08/27 06:06:43;;;;;;;;;;;;;;;28.25;52.64;101068.25;5086977;28;19929;-86
2023/08/27 06:09:09;;;;;;;;;;;;;;;28.23;52.86;101068.28;5080145;28;20088;-85
2023/08/27 06:11:35;;;;;;;;;;;;;;;28.24;53.09;101062.00;5074966;28;20060;-86
2023/08/27 06:14:00;;;;;;;;;;;;;;;28.23;52.63;101068.28;5068465;28;20415;-85
2023/08/27 06:16:26;;;;;;;;;;;;;;;28.22;53.09;101067.38;5060363;28;19932;-87
2023/08/27 06:18:55;;;;;;;;;;;;;;;28.25;53.14;101068.25;5040590;28;20488;-88
2023/08/27 06:21:21;;;;;;;;;;;;;;;28.22;52.98;101075.44;5053354;28;19928;-88
2023/08/27 06:23:47;;;;;;;;;;;;;;;28.25;52.34;101073.63;5067671;28;20313;-87
2023/08/27 06:26:13;;;;;;;;;;;;;;;28.21;52.96;101079.06;5068390;28;20323;-88
2023/08/27 06:28:38;;;;;;;;;;;;;;;28.25;53.21;101079.00;5065384;28;19916;-88
2023/08/27 06:31:03;;;;;;;;;;;;;;;28.23;52.96;101079.00;5068133;28;20402;-88
2023/08/27 06:33:29;;;;;;;;;;;;;;;28.25;52.95;101073.63;5066260;28;19920;-87
2023/08/27 06:35:54;;;;;;;;;;;;;;;28.22;52.61;101078.13;5072590;28;20363;-87
2023/08/27 06:38:20;;;;;;;;;;;;;;;28.22;52.45;101082.63;5064800;28;20279;-87
2023/08/27 06:40:45;;;;;;;;;;;;;;;28.19;52.96;101083.56;5072728;28;19920;-88
2023/08/27 06:43:11;;;;;;;;;;;;;;;28.21;53.00;101078.16;5055174;28;20016;-88
2023/08/27 06:45:36;;;;;;;;;;;;;;;28.18;52.90;101084.47;5052614;28;20316;-87
2023/08/27 06:48:02;;;;;;;;;;;;;;;28.16;52.93;101086.28;5037041;28;20449;-90
2023/08/27 06:50:27;;;;;;;;;;;;;;;28.20;52.17;101087.13;5050291;28;20416;-87
2023/08/27 06:52:52;;;;;;;;;;;;;;;28.12;52.12;101084.53;5049316;28;19920;-88
2023/08/27 06:55:18;;;;;;;;;;;;;;;28.10;52.32;101083.66;5046631;28;20408;-88
2023/08/27 06:57:43;;;;;;;;;;;;;;;28.10;52.44;101080.97;5056910;28;20405;-90
2023/08/27 07:00:11;;;;;;;;;;;;;;;28.19;52.36;101088.94;5052069;28;20305;-87
2023/08/27 07:02:37;;;;;;;;;;;;;;;28.18;51.82;101086.25;5033174;28;19917;-85
2023/08/27 07:05:08;;;;;;;;;;;;;;;28.11;52.47;101089.91;5062695;28;19921;-87
2023/08/27 07:07:34;;;;;;;;;;;;;;;28.14;51.97;101090.78;5054051;28;20031;-87
2023/08/27 07:09:59;;;;;;;;;;;;;;;28.10;51.69;101091.72;5039316;28;19920;-87
2023/08/27 07:12:25;;;;;;;;;;;;;;;28.13;51.46;101094.38;5053224;28;20371;-88
2023/08/27 07:14:50;;;;;;;;;;;;;;;28.15;51.82;101097.94;5053174;28;19912;-86
2023/08/27 07:17:15;;;;;;;;;;;;;;;28.10;51.87;101093.53;5049033;28;20371;-89
2023/08/27 07:19:41;;;;;;;;;;;;;;;28.08;52.40;101090.84;5043883;28;20423;-87
2023/08/27 07:22:07;;;;;;;;;;;;;;;28.14;51.81;101095.28;5035748;28;19917;-88
2023/08/27 07:24:33;;;;;;;;;;;;;;;28.13;51.62;101097.06;5039172;28;20015;-89
2023/08/27 07:26:58;;;;;;;;;;;;;;;28.10;52.28;101093.53;5048810;28;19940;-84
2023/08/27 07:29:24;;;;;;;;;;;;;;;28.06;52.49;101090.00;5034273;28;20417;-88
2023/08/27 07:31:50;;;;;;;;;;;;;;;28.08;52.01;101090.84;5035057;28;20547;-88
2023/08/27 07:34:16;;;;;;;;;;;;;;;28.14;52.41;101098.84;5058308;28;19927;-88
2023/08/27 07:36:41;;;;;;;;;;;;;;;28.08;52.58;101090.84;5040506;28;19918;-88
2023/08/27 07:39:07;;;;;;;;;;;;;;;28.12;52.26;101079.16;5046962;28;19918;-87
2023/08/27 07:41:32;;;;;;;;;;;;;;;28.08;52.14;101088.16;5068230;28;20385;-86
2023/08/27 07:43:59;;;;;;;;;;;;;;;28.10;52.18;101080.97;5048958;28;20406;-89
2023/08/27 07:46:24;;;;;;;;;;;;;;;28.09;51.98;101089.97;5047120;28;19921;-89
2023/08/27 07:48:50;;;;;;;;;;;;;;;28.12;52.03;101086.34;5045958;28;20386;-88
2023/08/27 07:51:18;;;;;;;;;;;;;;;28.17;51.56;101085.38;5053486;28;20500;-89
2023/08/27 07:53:44;;;;;;;;;;;;;;;28.15;51.77;101088.97;5050257;28;19929;-89
2023/08/27 07:56:09;;;;;;;;;;;;;;;28.14;51.47;101082.72;5070965;28;19925;-89
2023/08/27 07:58:34;;;;;;;;;;;;;;;28.11;51.66;101081.88;5049849;28;20396;-86
2023/08/27 08:01:02;;;;;;;;;;;;;;;28.14;51.60;101084.53;5040655;28;19917;-88
2023/08/27 08:03:28;;;;;;;;;;;;;;;28.18;51.24;101086.25;5051539;28;19978;-87
2023/08/27 08:05:54;;;;;;;;;;;;;;;28.13;51.79;101088.09;5050453;28;19952;-88
2023/08/27 08:08:19;;;;;;;;;;;;;;;28.13;51.56;101090.78;5041401;28;19981;-88
2023/08/27 08:10:45;;;;;;;;;;;;;;;28.16;51.46;101088.09;5051578;28;19925;-86
2023/08/27 08:13:11;;;;;;;;;;;;;;;28.15;51.51;101081.81;5062139;28;19917;-86
2023/08/27 08:15:36;;;;;;;;;;;;;;;28.13;51.71;101078.28;5032718;28;19921;-87
2023/08/27 08:18:02;;;;;;;;;;;;;;;28.11;51.23;101084.56;5032972;28;19917;-86
2023/08/27 08:20:27;;;;;;;;;;;;;;;28.11;51.52;101077.41;5045466;28;19918;-86
2023/08/27 08:22:53;;;;;;;;;;;;;;;28.12;51.93;101076.47;5049536;28;19921;-88
2023/08/27 08:25:20;;;;;;;;;;;;;;;28.13;51.41;101077.38;5037312;28;20370;-87
2023/08/27 08:27:47;;;;;;;;;;;;;;;28.16;51.60;101069.28;5050118;28;19928;-90
2023/08/27 08:30:12;;;;;;;;;;;;;;;28.16;51.50;101070.16;5023294;28;20403;-91
2023/08/27 08:32:37;;;;;;;;;;;;;;;28.13;52.02;101070.22;5051871;28;19949;-90
2023/08/27 08:35:04;;;;;;;;;;;;;;;28.16;51.56;101075.53;5038817;28;19923;-91
2023/08/27 08:37:30;;;;;;;;;;;;;;;28.14;51.71;101074.66;5065564;28;19917;-92
2023/08/27 08:39:57;;;;;;;;;;;;;;;28.13;52.31;101074.69;5039530;28;19963;-91
2023/08/27 08:42:23;;;;;;;;;;;;;;;28.13;51.99;101078.28;5043914;28;20382;-91
2023/08/27 08:45:18;;;;;;;;;;;;;;;28.16;51.90;101069.28;5051067;28;19985;-90
2023/08/27 08:47:46;;;;;;;;;;;;;;;28.17;52.25;101071.97;5051426;28;19925;-90
2023/08/27 08:50:13;;;;;;;;;;;;;;;28.21;52.11;101076.38;5065656;28;20004;-88
2023/08/27 08:52:42;;;;;;;;;;;;;;;28.34;55.54;101074.41;5038480;28;19943;-89
2023/08/27 08:55:10;;;;;;;;;;;;;;;28.31;56.38;101079.78;5065674;28;19920;-91
2023/08/27 08:57:47;;;;;;;;;;;;;;;28.20;55.16;101076.38;5045969;28;19983;-92
2023/08/27 09:00:14;;;;;;;;;;;;;;;28.20;53.86;101074.59;5044934;28;19924;-92
2023/08/27 09:02:43;;;;;;;;;;;;;;;28.19;54.74;101083.56;5040528;28;20357;-92
2023/08/27 09:05:13;;;;;;;;;;;;;;;28.15;54.23;101075.53;5064560;28;20347;-91
2023/08/27 09:08:01;;;;;;;;;;;;;;;28.16;53.71;101077.34;5052872;28;19926;-91
2023/08/27 09:10:27;;;;;;;;;;;;;;;28.14;54.41;101071.97;5049603;28;20309;-91
2023/08/27 09:13:08;;;;;;;;;;;;;;;28.16;53.55;101066.59;5055141;28;19916;-93
2023/08/27 09:15:35;;;;;;;;;;;;;;;28.16;53.57;101067.47;5056273;28;20008;-90
2023/08/27 09:18:01;;;;;;;;;;;;;;;28.16;53.94;101061.22;5048637;28;19921;-91
2023/08/27 09:20:28;;;;;;;;;;;;;;;28.22;54.28;101063.81;5045588;28;20364;-91
2023/08/27 09:22:58;;;;;;;;;;;;;;;28.18;54.13;101065.66;5058557;28;19924;-91
2023/08/27 09:25:32;;;;;;;;;;;;;;;28.13;54.62;101061.25;5062272;28;19920;-92
2023/08/27 09:28:00;;;;;;;;;;;;;;;28.20;53.77;101066.53;5072289;28;19920;-90
2023/08/27 09:30:31;;;;;;;;;;;;;;;28.21;53.70;101062.03;5035851;28;19928;-90
2023/08/27 09:32:58;;;;;;;;;;;;;;;28.20;53.55;101063.84;5045917;28;19992;-92
2023/08/27 09:35:45;;;;;;;;;;;;;;;28.21;53.54;101056.66;5039278;28;19924;-92
2023/08/27 09:38:14;;;;;;;;;;;;;;;28.18;54.06;101064.78;5054296;28;19920;-92
2023/08/27 09:40:41;;;;;;;;;;;;;;;28.15;54.10;101052.28;5038275;28;19975;-91
2023/08/27 09:43:09;;;;;;;;;;;;;;;28.19;53.41;101059.41;5043992;28;19925;-93
2023/08/27 09:45:54;;;;;;;;;;;;;;;28.22;53.89;101059.34;5032398;28;19921;-93
2023/08/27 09:48:25;;;;;;;;;;;;;;;28.27;53.15;101050.31;5049155;28;19920;-91
2023/08/27 09:51:05;;;;;;;;;;;;;;;28.23;53.41;101053.03;5072761;28;19980;-93
2023/08/27 09:53:31;;;;;;;;;;;;;;;28.24;53.46;101048.59;5019953;28;19921;-90
2023/08/27 09:55:57;;;;;;;;;;;;;;;28.26;53.58;101057.50;5044217;28;19921;-90
2023/08/27 09:58:26;;;;;;;;;;;;;;;28.28;53.38;101053.00;5057026;28;19917;-90
2023/08/27 10:00:57;;;;;;;;;;;;;;;28.28;53.50;101049.41;5019850;28;19921;-92
2023/08/27 10:03:22;;;;;;;;;;;;;;;28.29;53.27;101048.50;5054880;28;19947;-91
2023/08/27 10:05:50;;;;;;;;;;;;;;;28.30;53.52;101048.50;5045694;28;19921;-90
2023/08/27 10:08:16;;;;;;;;;;;;;;;28.26;53.78;101049.44;5038219;28;19932;-93
2023/08/27 10:10:48;;;;;;;;;;;;;;;28.30;53.28;101053.88;5061043;28;19916;-92
2023/08/27 10:13:17;;;;;;;;;;;;;;;28.29;53.27;101056.56;5032950;28;19924;-93
2023/08/27 10:15:45;;;;;;;;;;;;;;;28.32;53.26;101054.72;5074440;28;20407;-89
2023/08/27 10:18:14;;;;;;;;;;;;;;;28.29;53.40;101054.75;5045920;28;19917;-93
2023/08/27 10:20:41;;;;;;;;;;;;;;;28.28;53.70;101044.03;5025070;28;19917;-92
2023/08/27 10:23:17;;;;;;;;;;;;;;;28.28;53.36;101053.00;5051974;28;19924;-92
2023/08/27 10:25:49;;;;;;;;;;;;;;;28.27;53.57;101045.84;5039079;28;19921;-93
2023/08/27 10:28:16;;;;;;;;;;;;;;;28.32;53.26;101052.03;5034614;28;20004;-92
2023/08/27 10:30:42;;;;;;;;;;;;;;;28.35;53.43;101045.72;5057722;28;19925;-88
2023/08/27 10:33:07;;;;;;;;;;;;;;;28.30;54.22;101047.59;5044626;28;19917;-86
2023/08/27 10:35:34;;;;;;;;;;;;;;;28.30;53.95;101045.81;5047518;28;19923;-87
2023/08/27 10:37:59;;;;;;;;;;;;;;;28.30;53.59;101044.91;5023314;28;19924;-88
2023/08/27 10:40:25;;;;;;;;;;;;;;;28.31;53.64;101042.19;5038265;28;19921;-88
2023/08/27 10:42:50;;;;;;;;;;;;;;;28.30;53.97;101042.22;5037413;28;19921;-87
2023/08/27 10:45:17;;;;;;;;;;;;;;;28.33;53.72;101034.13;5046163;28;20390;-87
2023/08/27 10:48:03;;;;;;;;;;;;;;;28.35;53.69;101041.25;5044746;28;19917;-88
2023/08/27 10:50:40;;;;;;;;;;;;;;;28.33;53.51;101034.13;5040793;28;19924;-87
2023/08/27 10:53:07;;;;;;;;;;;;;;;28.32;53.86;101044.00;5053604;28;20438;-87
2023/08/27 10:55:34;;;;;;;;;;;;;;;28.35;53.51;101038.56;5056962;28;19920;-87
2023/08/27 10:58:15;;;;;;;;;;;;;;;28.33;53.45;101043.06;5030920;28;19917;-87
2023/08/27 11:00:57;;;;;;;;;;;;;;;28.34;53.53;101043.94;5069289;28;20003;-84
2023/08/27 11:03:22;;;;;;;;;;;;;;;28.39;55.27;101036.72;5056049;28;20333;-86
2023/08/27 11:06:08;;;;;;;;;;;;;;;28.37;54.51;101035.84;5016943;28;19936;-85
2023/08/27 11:08:37;;;;;;;;;;;;;;;28.35;54.22;101030.50;5034133;28;19928;-85
2023/08/27 11:11:14;;;;;;;;;;;;;;;28.38;53.73;101030.44;5035031;28;20359;-84
2023/08/27 11:13:46;;;;;;;;;;;;;;;28.38;53.50;101025.06;5035011;28;19921;-86
2023/08/27 11:16:13;;;;;;;;;;;;;;;28.39;53.50;101023.28;5045024;28;19932;-84
2023/08/27 11:18:45;;;;;;;;;;;;;;;28.41;53.63;101022.34;5051433;28;20398;-85
2023/08/27 11:21:25;;;;;;;;;;;;;;;28.45;53.22;101015.13;5034913;28;19968;-85
2023/08/27 11:24:11;;;;;;;;;;;;;;;28.42;53.81;101018.72;5036312;28;19917;-84
2023/08/27 11:26:37;;;;;;;;;;;;;;;28.46;53.39;101010.63;5028022;28;19925;-84
2023/08/27 11:29:03;;;;;;;;;;;;;;;28.52;53.52;101010.56;5036576;28;19921;-84
2023/08/27 11:31:32;;;;;;;;;;;;;;;28.56;52.96;101009.63;5041680;28;19979;-84
2023/08/27 11:33:57;;;;;;;;;;;;;;;28.58;52.83;101005.09;5037618;28;19921;-84
2023/08/27 11:36:22;;;;;;;;;;;;;;;28.57;53.41;101003.31;5031902;28;19943;-84
2023/08/27 11:38:48;;;;;;;;;;;;;;;28.61;53.23;100997.84;5041737;28;19920;-84
2023/08/27 11:41:13;;;;;;;;;;;;;;;28.62;53.24;101001.44;5039432;28;20397;-84
2023/08/27 11:45:01;;;;;;;;;;;;;;;28.65;52.83;101004.06;5078129;27;19928;-83
2023/08/27 11:47:27;;;;;;;;;;;;;;;28.66;52.62;100997.81;5066328;28;20335;-84
2023/08/27 11:49:56;;;;;;;;;;;;;;;28.70;53.03;100993.25;5051291;28;20000;-84
2023/08/27 11:52:22;;;;;;;;;;;;;;;28.71;52.84;100995.91;5087136;28;20433;-84
2023/08/27 11:54:48;;;;;;;;;;;;;;;28.72;53.15;100992.28;5097935;27;20015;-85
2023/08/27 11:57:15;;;;;;;;;;;;;;;28.68;53.35;100990.59;5062448;28;20371;-84
2023/08/27 11:59:41;;;;;;;;;;;;;;;28.71;52.75;100989.66;5093618;27;19959;-84
2023/08/27 12:02:07;;;;;;;;;;;;;;;28.69;53.23;100991.47;5092429;28;19986;-84
2023/08/27 12:04:32;;;;;;;;;;;;;;;28.71;53.03;100982.47;5064899;28;20389;-84
2023/08/27 12:07:01;;;;;;;;;;;;;;;28.73;52.71;100986.03;5052896;28;19956;-86
2023/08/27 12:09:31;;;;;;;;;;;;;;;28.73;52.82;100982.44;5094608;28;19920;-84
2023/08/27 12:12:02;;;;;;;;;;;;;;;28.73;52.98;100985.13;5056552;28;19925;-85
2023/08/27 12:14:29;;;;;;;;;;;;;;;28.71;52.93;100981.59;5089675;28;19921;-87
2023/08/27 12:17:00;;;;;;;;;;;;;;;28.73;52.65;100985.13;5080451;28;19933;-85
2023/08/27 12:19:25;;;;;;;;;;;;;;;28.74;52.96;100979.72;5089911;28;19986;-85
2023/08/27 12:21:51;;;;;;;;;;;;;;;28.73;53.23;100977.97;5057568;28;20287;-84
2023/08/27 12:24:29;;;;;;;;;;;;;;;28.72;52.92;100978.84;5064660;28;19928;-84
2023/08/27 12:26:55;;;;;;;;;;;;;;;28.75;52.67;100977.94;5058318;28;19928;-83
2023/08/27 12:29:21;;;;;;;;;;;;;;;28.71;52.74;100971.72;5051592;28;19935;-85
2023/08/27 12:31:46;;;;;;;;;;;;;;;28.71;53.08;100977.09;5046925;28;20090;-84
2023/08/27 12:34:12;;;;;;;;;;;;;;;28.70;53.22;100974.41;5053890;28;20008;-84
2023/08/27 12:36:37;;;;;;;;;;;;;;;28.71;53.16;100974.41;5069242;28;20382;-84
2023/08/27 12:39:03;;;;;;;;;;;;;;;28.72;52.75;100978.84;5055418;28;19986;-84